Time;durP1;ratioP1;P1;durP2;ratioP2;P2;SDS_P1;SDS_P2;PMS_P1;PMS_P2;Temp;Humidity;BMP_temperature;BMP_pressure;BME280_temperature;BME280_humidity;BME280_pressure;Samples;Min_cycle;Max_cycle;Signal;HPM_P1;HPM_P2
2021/10/09 00:01:23;;;;;;;4.50;4.10;;;16.40;81.90;;;;;;5092078;28;20088;-59
2021/10/09 00:03:50;;;;;;;4.63;4.05;;;16.40;81.90;;;;;;5091680;28;20043;-59
2021/10/09 00:06:16;;;;;;;4.93;4.22;;;16.40;81.90;;;;;;5091739;28;20386;-58
2021/10/09 00:08:42;;;;;;;5.20;4.32;;;16.40;81.90;;;;;;5091934;28;20158;-58
2021/10/09 00:11:15;;;;;;;4.60;3.78;;;16.40;81.90;;;;;;5091733;28;20475;-58
2021/10/09 00:13:40;;;;;;;4.53;4.10;;;16.40;81.90;;;;;;5091716;28;20087;-58
2021/10/09 00:16:06;;;;;;;4.38;3.97;;;16.40;81.80;;;;;;5095268;28;20424;-57
2021/10/09 00:18:32;;;;;;;5.35;4.57;;;16.40;81.80;;;;;;5095023;28;20086;-59
2021/10/09 00:20:57;;;;;;;4.88;4.35;;;16.40;81.80;;;;;;5095348;28;20127;-57
2021/10/09 00:23:23;;;;;;;4.57;3.88;;;16.40;81.80;;;;;;5095166;28;20040;-58
2021/10/09 00:25:49;;;;;;;4.80;4.30;;;16.40;81.80;;;;;;5095246;28;20047;-59
2021/10/09 00:28:14;;;;;;;4.75;3.90;;;16.40;81.90;;;;;;5094778;28;20443;-57
2021/10/09 00:30:40;;;;;;;4.70;4.05;;;16.40;81.90;;;;;;5094434;28;20109;-59
2021/10/09 00:33:06;;;;;;;4.75;4.00;;;16.40;81.90;;;;;;5094916;28;20079;-59
2021/10/09 00:35:32;;;;;;;5.38;4.10;;;16.40;81.90;;;;;;5095122;28;20044;-59
2021/10/09 00:37:58;;;;;;;5.28;4.50;;;16.40;81.90;;;;;;5095090;28;20036;-59
2021/10/09 00:40:23;;;;;;;4.53;4.10;;;16.40;81.90;;;;;;5093378;28;20048;-58
2021/10/09 00:42:49;;;;;;;4.78;4.22;;;16.40;81.90;;;;;;5095265;28;20110;-59
2021/10/09 00:45:15;;;;;;;4.57;4.00;;;16.40;82.00;;;;;;5092851;28;20373;-57
2021/10/09 00:47:40;;;;;;;5.15;4.22;;;16.40;82.00;;;;;;5094484;28;20066;-57
2021/10/09 00:50:07;;;;;;;4.55;3.92;;;16.40;82.00;;;;;;5094726;28;20040;-58
2021/10/09 00:52:35;;;;;;;4.70;4.20;;;16.40;82.00;;;;;;5094879;28;20050;-58
2021/10/09 00:55:05;;;;;;;5.22;4.50;;;16.40;82.00;;;;;;5094533;28;20051;-58
2021/10/09 00:57:34;;;;;;;4.38;3.88;;;16.40;82.00;;;;;;5094640;28;20055;-59
2021/10/09 01:00:01;;;;;;;4.22;3.83;;;16.40;81.90;;;;;;5094052;28;20490;-58
2021/10/09 01:02:26;;;;;;;5.07;4.57;;;16.40;81.90;;;;;;5094393;28;20097;-60
2021/10/09 01:04:52;;;;;;;5.90;4.28;;;16.40;81.90;;;;;;5094584;28;20043;-58
2021/10/09 01:07:18;;;;;;;4.75;4.03;;;16.40;81.90;;;;;;5093340;28;20458;-60
2021/10/09 01:09:46;;;;;;;4.40;4.00;;;16.40;81.90;;;;;;5093970;28;20036;-61
2021/10/09 01:12:13;;;;;;;5.45;4.65;;;16.40;82.00;;;;;;5093847;28;20040;-59
2021/10/09 01:14:40;;;;;;;4.72;4.22;;;16.40;82.00;;;;;;5094121;28;20036;-58
2021/10/09 01:17:08;;;;;;;4.68;4.00;;;16.40;82.00;;;;;;5092703;28;20048;-59
2021/10/09 01:19:34;;;;;;;5.72;4.55;;;16.40;82.00;;;;;;5092657;28;20036;-61
2021/10/09 01:21:59;;;;;;;4.65;4.00;;;16.40;82.00;;;;;;5094460;28;20097;-59
2021/10/09 01:24:25;;;;;;;5.00;4.30;;;16.40;81.90;;;;;;5093719;28;20093;-62
2021/10/09 01:26:51;;;;;;;5.22;4.25;;;16.40;82.00;;;;;;5092367;28;20050;-60
2021/10/09 01:29:16;;;;;;;5.25;4.28;;;16.40;82.00;;;;;;5093390;28;20539;-60
2021/10/09 01:31:42;;;;;;;5.65;4.53;;;16.40;82.00;;;;;;5094014;28;20043;-60
2021/10/09 01:34:08;;;;;;;4.60;4.10;;;16.40;82.00;;;;;;5093660;28;20036;-59
2021/10/09 01:36:36;;;;;;;4.28;3.85;;;16.40;82.00;;;;;;5093059;28;20159;-59
2021/10/09 01:39:04;;;;;;;4.90;4.40;;;16.40;82.00;;;;;;5093899;28;20090;-59
2021/10/09 01:41:35;;;;;;;4.82;4.32;;;16.40;82.00;;;;;;5094177;28;20059;-57
2021/10/09 01:44:01;;;;;;;5.95;4.63;;;16.40;82.00;;;;;;5093745;28;20048;-58
2021/10/09 01:46:26;;;;;;;4.80;3.95;;;16.30;81.90;;;;;;5093650;28;20395;-57
2021/10/09 01:48:52;;;;;;;5.13;4.18;;;16.30;81.90;;;;;;5093232;28;20101;-58
2021/10/09 01:51:17;;;;;;;5.00;4.32;;;16.40;81.90;;;;;;5092274;28;20040;-58
2021/10/09 01:53:45;;;;;;;4.47;4.05;;;16.30;81.90;;;;;;5094082;28;20098;-58
2021/10/09 01:56:11;;;;;;;5.32;4.50;;;16.40;81.90;;;;;;5093683;28;20515;-58
2021/10/09 01:58:37;;;;;;;4.38;3.90;;;16.40;81.90;;;;;;5093699;28;20031;-58
2021/10/09 02:01:04;;;;;;;5.18;4.18;;;16.40;81.90;;;;;;5093658;28;20044;-58
2021/10/09 02:03:29;;;;;;;5.15;4.55;;;16.40;82.60;;;;;;5093610;28;20043;-58
2021/10/09 02:05:55;;;;;;;5.00;4.50;;;16.40;81.90;;;;;;5093459;28;20408;-58
2021/10/09 02:08:21;;;;;;;5.35;4.15;;;16.30;81.90;;;;;;5092109;28;20097;-57
2021/10/09 02:11:07;;;;;;;5.50;4.63;;;16.30;81.80;;;;;;5093533;28;20036;-60
2021/10/09 02:26:35;;;;;;;4.80;4.20;;;16.30;81.90;;;;;;5092753;28;20056;-58
2021/10/09 02:29:01;;;;;;;5.15;4.65;;;16.30;81.90;;;;;;5092988;28;20055;-58
2021/10/09 02:31:28;;;;;;;4.70;4.10;;;16.30;81.90;;;;;;5093210;28;20100;-58
2021/10/09 02:33:54;;;;;;;4.75;4.25;;;16.40;82.00;;;;;;5092662;28;20503;-58
2021/10/09 02:36:20;;;;;;;5.18;4.32;;;16.30;81.90;;;;;;5092350;28;20036;-58
2021/10/09 02:38:45;;;;;;;5.90;5.18;;;16.40;82.10;;;;;;5091548;28;20089;-59
2021/10/09 02:41:12;;;;;;;4.90;4.35;;;16.30;81.90;;;;;;5092775;28;20040;-59
2021/10/09 02:43:38;;;;;;;5.57;4.32;;;16.30;81.90;;;;;;5092577;28;20476;-59
2021/10/09 02:46:04;;;;;;;5.05;4.18;;;16.30;81.90;;;;;;5092160;28;20051;-58
2021/10/09 02:48:29;;;;;;;5.45;4.60;;;16.30;81.80;;;;;;5092179;28;20039;-59
2021/10/09 02:50:55;;;;;;;5.72;4.90;;;16.30;81.90;;;;;;5092783;28;20122;-60
2021/10/09 02:53:21;;;;;;;5.40;4.88;;;16.30;82.00;;;;;;5092083;28;20117;-58
2021/10/09 02:55:46;;;;;;;5.43;4.47;;;16.30;81.90;;;;;;5092459;28;20036;-58
2021/10/09 02:58:12;;;;;;;5.97;4.70;;;16.40;82.00;;;;;;5090804;28;20087;-58
2021/10/09 03:00:38;;;;;;;4.95;4.45;;;16.30;81.90;;;;;;5092552;28;20093;-59
2021/10/09 03:03:04;;;;;;;5.15;4.65;;;16.30;82.50;;;;;;5092585;28;20086;-59
2021/10/09 03:05:30;;;;;;;5.80;4.75;;;16.30;81.90;;;;;;5092219;28;20044;-59
2021/10/09 03:07:56;;;;;;;7.07;5.07;;;16.30;81.90;;;;;;5091843;28;20135;-59
2021/10/09 03:10:21;;;;;;;6.32;5.32;;;16.30;81.90;;;;;;5091988;28;20093;-58
2021/10/09 03:12:47;;;;;;;5.70;4.75;;;16.30;82.00;;;;;;5092526;28;20059;-59
2021/10/09 03:15:13;;;;;;;5.68;4.78;;;16.30;82.00;;;;;;5092551;28;20038;-58
2021/10/09 03:17:40;;;;;;;5.68;4.65;;;16.30;82.00;;;;;;5092267;28;20125;-58
2021/10/09 03:20:07;;;;;;;5.72;4.70;;;16.40;82.10;;;;;;5092207;28;20484;-58
2021/10/09 03:22:33;;;;;;;5.53;4.78;;;16.30;81.90;;;;;;5092288;28;20036;-58
2021/10/09 03:24:59;;;;;;;6.40;4.95;;;16.30;81.90;;;;;;5091468;28;20044;-59
2021/10/09 03:27:25;;;;;;;5.93;5.05;;;16.30;81.90;;;;;;5091847;28;20063;-58
2021/10/09 03:29:50;;;;;;;6.13;5.22;;;16.30;81.90;;;;;;5091835;28;20465;-58
2021/10/09 03:32:16;;;;;;;7.25;4.82;;;16.30;81.90;;;;;;5091784;28;20040;-60
2021/10/09 03:34:42;;;;;;;6.38;4.93;;;16.30;81.90;;;;;;5092210;28;20115;-58
2021/10/09 03:37:09;;;;;;;5.10;4.45;;;16.30;82.30;;;;;;5092110;28;20377;-59
2021/10/09 03:39:36;;;;;;;6.00;5.00;;;16.30;82.00;;;;;;5091256;28;20507;-60
2021/10/09 03:42:08;;;;;;;5.60;5.00;;;16.30;82.00;;;;;;5091679;28;20052;-58
2021/10/09 03:44:39;;;;;;;6.03;4.88;;;16.30;81.90;;;;;;5090494;28;20063;-59
2021/10/09 03:49:45;;;;;;;6.50;4.85;;;16.30;82.00;;;;;;5093271;28;20048;-58
2021/10/09 03:54:55;;;;;;;6.80;4.63;;;16.30;81.90;;;;;;5096374;28;20052;-59
2021/10/09 03:57:24;;;;;;;6.72;5.18;;;16.40;82.00;;;;;;5094212;28;20109;-58
2021/10/09 03:59:50;;;;;;;5.53;4.95;;;16.30;81.90;;;;;;5096677;28;20414;-59
2021/10/09 04:02:16;;;;;;;6.70;5.20;;;16.30;81.90;;;;;;5095879;28;20098;-58
2021/10/09 04:04:45;;;;;;;6.60;5.25;;;16.20;81.80;;;;;;5095456;28;20039;-58
2021/10/09 04:07:11;;;;;;;5.78;5.13;;;16.30;81.80;;;;;;5095901;28;20412;-58
2021/10/09 04:09:36;;;;;;;5.90;4.82;;;16.30;81.90;;;;;;5095855;28;20044;-57
2021/10/09 04:12:02;;;;;;;5.85;4.93;;;16.30;81.90;;;;;;5094755;28;20109;-58
2021/10/09 04:14:28;;;;;;;6.32;5.10;;;16.30;81.90;;;;;;5095270;28;20353;-58
2021/10/09 04:16:53;;;;;;;5.50;4.88;;;16.30;81.90;;;;;;5095504;28;20425;-58
2021/10/09 04:19:19;;;;;;;6.93;4.97;;;16.30;81.90;;;;;;5095240;28;20028;-58
2021/10/09 04:21:45;;;;;;;6.60;5.32;;;16.30;81.80;;;;;;5095549;28;20043;-58
2021/10/09 04:24:10;;;;;;;7.28;5.60;;;16.30;81.80;;;;;;5095270;28;20113;-58
2021/10/09 04:26:36;;;;;;;6.13;5.43;;;16.30;81.80;;;;;;5095377;28;20397;-58
2021/10/09 04:29:02;;;;;;;6.30;5.15;;;16.30;81.80;;;;;;5094941;28;20048;-58
2021/10/09 04:31:27;;;;;;;5.93;5.22;;;16.30;81.80;;;;;;5094815;28;20066;-58
2021/10/09 04:33:53;;;;;;;6.57;4.88;;;16.30;81.80;;;;;;5095220;28;20093;-58
2021/10/09 04:36:18;;;;;;;5.90;5.13;;;16.20;81.80;;;;;;5095444;28;20050;-59
2021/10/09 04:38:44;;;;;;;7.00;5.55;;;16.30;81.80;;;;;;5095043;28;20059;-58
2021/10/09 04:41:10;;;;;;;6.03;5.35;;;16.30;81.80;;;;;;5095207;28;20040;-58
2021/10/09 04:43:35;;;;;;;5.70;4.97;;;16.30;81.80;;;;;;5094567;28;20438;-58
2021/10/09 04:46:01;;;;;;;5.63;5.05;;;16.30;81.80;;;;;;5095018;28;20467;-60
2021/10/09 04:48:27;;;;;;;6.13;5.28;;;16.20;81.80;;;;;;5094700;28;20043;-58
2021/10/09 04:50:52;;;;;;;6.28;5.32;;;16.30;81.90;;;;;;5093183;28;20048;-58
2021/10/09 04:53:18;;;;;;;6.15;5.50;;;16.30;81.80;;;;;;5094479;28;20036;-59
2021/10/09 04:55:43;;;;;;;6.18;5.55;;;16.30;81.80;;;;;;5094719;28;20047;-58
2021/10/09 04:58:09;;;;;;;5.90;5.28;;;16.30;81.80;;;;;;5094486;28;20044;-57
2021/10/09 05:00:35;;;;;;;6.53;5.25;;;16.30;81.80;;;;;;5093165;28;20435;-59
2021/10/09 05:03:00;;;;;;;6.80;5.57;;;16.30;81.80;;;;;;5093355;28;20059;-58
2021/10/09 05:05:26;;;;;;;6.20;5.13;;;16.30;81.80;;;;;;5094413;28;20043;-59
2021/10/09 05:07:52;;;;;;;5.97;5.18;;;16.30;81.80;;;;;;5094728;28;20048;-59
2021/10/09 05:10:17;;;;;;;6.03;5.43;;;16.30;81.80;;;;;;5094209;28;20036;-59
2021/10/09 05:12:43;;;;;;;6.30;5.20;;;16.30;81.80;;;;;;5094364;28;20043;-58
2021/10/09 05:15:09;;;;;;;7.35;6.15;;;16.30;81.80;;;;;;5093538;28;20036;-58
2021/10/09 05:17:35;;;;;;;6.25;5.65;;;16.30;81.80;;;;;;5094363;28;20454;-59
2021/10/09 05:20:01;;;;;;;6.85;5.70;;;16.30;81.80;;;;;;5093906;28;20047;-58
2021/10/09 05:22:29;;;;;;;7.00;5.53;;;16.30;81.80;;;;;;5094188;28;20384;-61
2021/10/09 05:24:55;;;;;;;6.43;5.38;;;16.30;81.80;;;;;;5093890;28;20044;-61
2021/10/09 05:27:20;;;;;;;6.55;5.88;;;16.30;81.80;;;;;;5092440;28;20056;-61
2021/10/09 05:29:48;;;;;;;5.78;5.18;;;16.30;81.80;;;;;;5093776;28;20079;-60
2021/10/09 05:32:20;;;;;;;6.30;5.63;;;16.30;81.80;;;;;;5093826;28;20079;-61
2021/10/09 05:34:46;;;;;;;7.40;6.05;;;16.30;81.90;;;;;;5094093;28;20052;-58
2021/10/09 05:37:12;;;;;;;7.43;6.05;;;16.30;81.90;;;;;;5093881;28;20130;-58
2021/10/09 05:39:37;;;;;;;7.22;5.72;;;16.30;81.80;;;;;;5093997;28;20047;-61
2021/10/09 05:42:03;;;;;;;7.07;6.15;;;16.20;81.80;;;;;;5093566;28;20040;-60
2021/10/09 05:44:29;;;;;;;6.80;5.90;;;16.30;81.80;;;;;;5093757;28;20054;-59
2021/10/09 05:46:54;;;;;;;7.35;5.93;;;16.30;81.80;;;;;;5093093;28;20078;-61
2021/10/09 05:49:20;;;;;;;7.13;5.90;;;16.20;81.70;;;;;;5093239;28;20036;-58
2021/10/09 05:52:35;;;;;;;7.63;6.55;;;16.20;81.70;;;;;;5092946;28;20531;-60
2021/10/09 05:54:38;;;;;;;7.93;6.72;;;16.30;81.80;;;;;;5085378;28;20123;-58
2021/10/09 05:57:24;;;;;;;7.15;6.30;;;16.30;81.80;;;;;;5085536;28;20055;-59
2021/10/09 06:59:38;;;;;;;10.45;7.72;;;16.20;81.80;;;;;;5091839;28;20036;-59
2021/10/09 07:02:04;;;;;;;10.27;8.27;;;16.20;81.80;;;;;;5089668;28;20404;-60
2021/10/09 07:04:30;;;;;;;30.73;20.58;;;16.20;81.80;;;;;;5091732;28;20028;-60
2021/10/09 07:06:57;;;;;;;23.88;16.33;;;16.30;80.70;;;;;;5089272;28;20048;-58
2021/10/09 07:09:23;;;;;;;20.88;15.05;;;16.20;79.90;;;;;;5091792;28;20048;-62
2021/10/09 07:11:48;;;;;;;21.73;14.40;;;16.10;80.00;;;;;;5091864;28;20071;-58
2021/10/09 07:14:14;;;;;;;24.77;18.00;;;16.10;80.20;;;;;;5091899;28;20499;-63
2021/10/09 07:16:40;;;;;;;26.30;18.02;;;16.10;79.50;;;;;;5090907;28;20547;-62
2021/10/09 07:19:06;;;;;;;25.08;18.58;;;16.10;79.60;;;;;;5091364;28;20040;-63
2021/10/09 07:21:32;;;;;;;24.27;17.75;;;16.10;80.00;;;;;;5091996;28;20123;-63
2021/10/09 07:23:57;;;;;;;26.88;18.85;;;16.10;80.20;;;;;;5091468;28;20494;-61
2021/10/09 07:26:23;;;;;;;26.10;17.05;;;16.00;80.20;;;;;;5092123;28;20091;-62
2021/10/09 07:28:49;;;;;;;25.23;17.63;;;16.10;80.60;;;;;;5092311;28;20403;-62
2021/10/09 07:31:16;;;;;;;23.60;17.65;;;16.10;80.80;;;;;;5092163;28;20483;-62
2021/10/09 07:33:42;;;;;;;26.08;19.25;;;16.10;81.00;;;;;;5091149;28;20048;-63
2021/10/09 07:36:08;;;;;;;27.15;18.20;;;16.10;81.10;;;;;;5091109;28;20040;-62
2021/10/09 07:38:34;;;;;;;25.80;18.25;;;16.10;81.20;;;;;;5091300;28;20446;-63
2021/10/09 07:40:59;;;;;;;24.10;17.63;;;16.10;81.30;;;;;;5091729;28;20123;-62
2021/10/09 07:43:25;;;;;;;23.55;17.25;;;16.10;81.30;;;;;;5091752;28;20044;-62
2021/10/09 07:45:51;;;;;;;26.73;18.30;;;16.10;81.40;;;;;;5091870;28;20131;-63
2021/10/09 07:48:16;;;;;;;24.65;17.45;;;16.10;81.50;;;;;;5091667;28;20058;-62
2021/10/09 07:50:42;;;;;;;22.17;16.55;;;16.10;81.50;;;;;;5091743;28;20044;-62
2021/10/09 07:53:09;;;;;;;22.20;17.77;;;16.10;81.50;;;;;;5091430;28;20051;-62
2021/10/09 07:55:34;;;;;;;23.67;17.10;;;16.10;81.60;;;;;;5090351;28;20452;-63
2021/10/09 07:58:00;;;;;;;22.35;16.42;;;16.10;81.60;;;;;;5091680;28;20094;-62
2021/10/09 08:00:25;;;;;;;24.02;17.15;;;16.10;81.60;;;;;;5091633;28;20093;-63
2021/10/09 08:02:52;;;;;;;25.55;17.25;;;16.20;81.70;;;;;;5091656;28;20054;-63
2021/10/09 08:05:19;;;;;;;24.00;17.00;;;16.10;81.70;;;;;;5091696;28;20534;-63
2021/10/09 08:07:45;;;;;;;25.50;17.42;;;16.10;81.70;;;;;;5073528;28;20457;-62
2021/10/09 08:10:11;;;;;;;22.42;16.67;;;16.10;81.70;;;;;;5091822;28;20048;-63
2021/10/09 08:12:37;;;;;;;23.95;17.05;;;16.10;81.70;;;;;;5092153;28;20040;-62
2021/10/09 08:15:05;;;;;;;21.17;16.08;;;16.20;81.70;;;;;;5092016;28;20111;-61
2021/10/09 08:17:31;;;;;;;23.00;16.58;;;16.10;81.70;;;;;;5090134;28;20089;-63
2021/10/09 08:19:56;;;;;;;27.67;18.35;;;16.10;81.70;;;;;;5091901;28;20043;-62
2021/10/09 08:22:24;;;;;;;23.30;17.50;;;16.10;81.80;;;;;;5092060;28;20395;-63
2021/10/09 08:25:19;;;;;;;24.50;17.15;;;16.10;81.80;;;;;;5091594;28;20048;-63
2021/10/09 08:36:02;;;;;;;45.28;28.10;;;16.10;81.80;;;;;;5092185;28;20044;-64
2021/10/09 08:41:12;;;;;;;23.52;17.83;;;16.10;79.70;;;;;;5094131;28;20050;-65
2021/10/09 08:43:44;;;;;;;27.42;19.77;;;16.00;79.60;;;;;;5094254;28;20032;-64
2021/10/09 08:46:10;;;;;;;26.60;19.50;;;16.10;79.70;;;;;;5089800;28;20052;-64
2021/10/09 08:48:47;;;;;;;26.38;18.67;;;16.10;79.70;;;;;;5094135;28;20042;-65
2021/10/09 08:51:23;;;;;;;27.35;19.95;;;16.00;79.60;;;;;;5091798;28;20139;-64
2021/10/09 08:53:50;;;;;;;27.67;18.70;;;16.00;79.80;;;;;;5091328;28;20036;-65
2021/10/09 08:56:38;;;;;;;29.95;19.20;;;16.00;79.90;;;;;;5093594;28;20456;-64
2021/10/09 08:59:20;;;;;;;25.63;19.13;;;16.10;80.10;;;;;;5092953;28;20047;-63
2021/10/09 09:02:08;;;;;;;27.00;19.70;;;16.00;80.10;;;;;;5092510;28;20053;-64
2021/10/09 09:04:55;;;;;;;24.70;18.73;;;16.00;80.20;;;;;;5090172;28;20489;-64
2021/10/09 09:27:06;;;;;;;25.02;17.98;;;16.00;80.70;;;;;;5093382;28;20055;-64
2021/10/09 09:40:08;;;;;;;23.70;18.30;;;16.00;81.00;;;;;;5093629;28;20055;-64
2021/10/09 09:42:45;;;;;;;25.02;19.08;;;16.00;81.10;;;;;;5093524;28;20036;-65
2021/10/09 09:45:13;;;;;;;22.35;17.60;;;16.10;81.30;;;;;;5093753;28;20075;-63
2021/10/09 09:47:41;;;;;;;22.20;17.00;;;16.10;81.30;;;;;;5093343;28;20091;-64
2021/10/09 09:50:16;;;;;;;24.02;18.23;;;16.10;81.40;;;;;;5093742;28;20093;-64
2021/10/09 09:52:43;;;;;;;24.45;18.70;;;16.10;81.40;;;;;;5079130;28;20048;-64
2021/10/09 09:55:11;;;;;;;24.30;17.38;;;16.00;81.40;;;;;;5093469;28;20529;-65
2021/10/09 09:57:39;;;;;;;22.80;18.25;;;16.10;81.60;;;;;;5092004;28;20437;-63
2021/10/09 10:00:10;;;;;;;22.73;17.08;;;16.10;81.60;;;;;;5092935;28;20044;-64
2021/10/09 10:02:50;;;;;;;23.50;17.98;;;16.10;81.60;;;;;;5093306;28;20040;-65
2021/10/09 10:05:17;;;;;;;22.35;16.90;;;16.10;81.70;;;;;;5081479;28;20570;-63
2021/10/09 10:07:42;;;;;;;21.75;16.85;;;16.10;81.70;;;;;;5093821;28;20181;-65
2021/10/09 10:10:10;;;;;;;23.13;17.58;;;16.10;81.70;;;;;;5093424;28;20079;-64
2021/10/09 10:12:37;;;;;;;22.33;17.48;;;16.10;81.70;;;;;;5093159;28;20051;-64
2021/10/09 10:15:05;;;;;;;20.58;16.00;;;16.10;81.80;;;;;;5092667;28;20036;-65
2021/10/09 10:17:49;;;;;;;22.48;17.00;;;16.10;81.80;;;;;;5093474;28;20051;-65
2021/10/09 10:20:20;;;;;;;20.15;16.15;;;16.10;81.80;;;;;;5093054;28;20082;-65
2021/10/09 10:22:45;;;;;;;22.05;16.17;;;16.10;81.90;;;;;;5093157;28;20048;-65
2021/10/09 10:25:23;;;;;;;22.02;16.55;;;16.10;81.90;;;;;;5092845;28;20614;-65
2021/10/09 10:28:17;;;;;;;23.27;16.88;;;16.10;81.90;;;;;;5093009;28;20342;-63
2021/10/09 10:30:49;;;;;;;23.38;17.02;;;16.10;81.90;;;;;;5076818;28;20054;-65
2021/10/09 10:33:18;;;;;;;19.85;15.48;;;16.10;82.00;;;;;;5092815;28;20068;-65
2021/10/09 10:35:46;;;;;;;21.88;16.48;;;16.10;82.00;;;;;;5092695;28;20141;-65
2021/10/09 10:38:18;;;;;;;20.52;16.17;;;16.10;82.10;;;;;;5092960;28;20055;-65
2021/10/09 10:41:02;;;;;;;21.92;16.02;;;16.10;82.10;;;;;;5076581;28;20047;-65
2021/10/09 10:46:31;;;;;;;19.60;15.13;;;16.10;82.20;;;;;;5092910;28;20051;-65
2021/10/09 10:49:21;;;;;;;20.73;15.82;;;16.10;82.20;;;;;;5078938;28;20049;-65
2021/10/09 10:57:02;;;;;;;20.55;15.48;;;16.10;82.20;;;;;;5091968;28;20567;-64
2021/10/09 10:59:31;;;;;;;19.58;15.85;;;16.10;82.20;;;;;;5091436;28;20121;-64
2021/10/09 11:02:15;;;;;;;19.92;15.73;;;16.10;82.20;;;;;;5091076;28;20056;-64
2021/10/09 11:04:54;;;;;;;21.33;15.60;;;16.10;82.20;;;;;;5092067;28;20048;-65
2021/10/09 11:07:25;;;;;;;20.20;15.60;;;16.10;82.30;;;;;;5091929;28;20508;-63
2021/10/09 11:09:51;;;;;;;19.83;14.95;;;16.10;82.30;;;;;;5089410;28;20159;-66
2021/10/09 11:12:27;;;;;;;18.17;14.93;;;16.10;82.30;;;;;;5091881;28;20395;-64
2021/10/09 11:15:04;;;;;;;;;;;16.10;82.20;;;;;;5092440;28;20040;-64
2021/10/09 11:17:38;;;;;;;18.50;13.98;;;16.10;82.30;;;;;;5091340;28;19928;-63
2021/10/09 11:20:28;;;;;;;19.65;14.30;;;16.10;82.30;;;;;;5086191;28;20071;-63
2021/10/09 11:23:00;;;;;;;18.98;15.23;;;16.10;82.30;;;;;;5090835;28;20044;-64
2021/10/09 11:25:29;;;;;;;18.95;14.50;;;16.10;82.30;;;;;;5089113;28;20055;-64
2021/10/09 11:27:57;;;;;;;18.80;15.18;;;16.10;82.30;;;;;;5086727;28;20051;-62
2021/10/09 11:30:23;;;;;;;17.77;14.02;;;16.10;82.30;;;;;;5091058;28;20050;-63
2021/10/09 11:32:49;;;;;;;16.83;14.32;;;16.10;82.30;;;;;;5091267;28;20101;-64
2021/10/09 11:35:17;;;;;;;18.33;14.38;;;16.10;82.20;;;;;;5089484;28;20044;-64
2021/10/09 11:37:51;;;;;;;18.60;14.23;;;16.10;82.20;;;;;;5091221;28;20036;-63
2021/10/09 11:40:50;;;;;;;15.73;13.43;;;16.10;82.20;;;;;;5088189;28;20051;-63
2021/10/09 11:47:04;;;;;;;16.70;14.15;;;16.10;82.20;;;;;;5047426;28;20405;-67
2021/10/09 11:54:47;;;;;;;17.40;13.85;;;16.10;82.10;;;;;;5048805;28;20037;-66
2021/10/09 11:57:15;;;;;;;15.75;12.48;;;16.10;82.10;;;;;;5048572;28;20052;-67
2021/10/09 11:59:42;;;;;;;15.88;12.82;;;16.10;82.20;;;;;;5048845;28;20397;-67
2021/10/09 12:02:08;;;;;;;16.38;13.73;;;16.10;82.10;;;;;;5031560;28;20474;-67
2021/10/09 12:04:34;;;;;;;15.13;12.50;;;16.10;82.10;;;;;;5048768;28;20067;-67
2021/10/09 12:09:50;;;;;;;16.63;14.05;;;16.10;82.00;;;;;;5048704;28;20127;-66
2021/10/09 12:12:22;;;;;;;16.27;13.15;;;16.20;82.00;;;;;;5052127;28;20106;-67
2021/10/09 12:14:51;;;;;;;16.08;12.45;;;16.20;82.00;;;;;;5052137;28;20491;-67
2021/10/09 12:17:21;;;;;;;16.10;12.50;;;16.20;82.00;;;;;;5052574;28;20053;-67
2021/10/09 12:20:01;;;;;;;15.13;12.68;;;16.20;82.00;;;;;;5052560;28;20066;-67
2021/10/09 12:22:28;;;;;;;14.27;11.82;;;16.20;82.00;;;;;;5053032;28;20523;-66
2021/10/09 12:24:55;;;;;;;14.93;12.32;;;16.20;82.00;;;;;;5095111;28;20047;-67
2021/10/09 12:27:26;;;;;;;15.70;11.95;;;16.20;82.00;;;;;;5095000;28;20097;-67
2021/10/09 12:30:16;;;;;;;14.80;12.18;;;16.20;81.90;;;;;;5095021;28;20052;-67
2021/10/09 12:32:44;;;;;;;15.98;12.07;;;16.20;81.90;;;;;;5082475;28;20161;-67
2021/10/09 12:35:13;;;;;;;16.10;12.38;;;16.20;81.90;;;;;;5095197;28;20115;-66
2021/10/09 12:37:52;;;;;;;14.57;11.82;;;16.20;81.90;;;;;;5094703;28;20056;-65
2021/10/09 12:40:19;;;;;;;13.90;11.90;;;16.30;82.00;;;;;;5094707;28;20079;-67
2021/10/09 12:42:50;;;;;;;15.65;12.52;;;16.20;81.90;;;;;;5094312;28;20040;-65
2021/10/09 12:45:17;;;;;;;14.27;11.45;;;16.20;81.80;;;;;;5092445;28;20099;-66
2021/10/09 12:47:44;;;;;;;13.30;11.20;;;16.20;81.80;;;;;;5094813;28;20043;-67
2021/10/09 12:50:10;;;;;;;14.25;11.98;;;16.20;81.80;;;;;;5094460;28;20399;-67
2021/10/09 12:52:36;;;;;;;14.75;11.60;;;16.10;81.80;;;;;;5093360;28;20492;-68
2021/10/09 12:55:03;;;;;;;14.38;11.77;;;16.20;81.80;;;;;;5092050;28;20281;-66
2021/10/09 12:57:32;;;;;;;12.52;11.23;;;16.20;81.80;;;;;;5093957;28;20040;-65
2021/10/09 13:00:01;;;;;;;14.80;12.02;;;16.20;81.80;;;;;;5073350;28;20040;-65
2021/10/09 13:02:26;;;;;;;13.50;11.05;;;16.20;81.80;;;;;;5090314;28;20058;-66
2021/10/09 13:04:52;;;;;;;15.13;10.95;;;16.20;81.70;;;;;;5089849;28;20451;-65
2021/10/09 13:07:18;;;;;;;14.20;11.25;;;16.20;81.70;;;;;;5089752;28;20040;-66
2021/10/09 13:09:44;;;;;;;12.68;11.15;;;16.20;81.80;;;;;;5086820;28;20044;-66
2021/10/09 13:12:13;;;;;;;12.70;10.80;;;16.20;81.70;;;;;;5089691;28;20373;-65
2021/10/09 13:14:39;;;;;;;14.07;11.60;;;16.20;81.70;;;;;;5089384;28;20048;-66
2021/10/09 13:17:05;;;;;;;14.13;11.32;;;16.20;81.70;;;;;;5090124;28;20063;-66
2021/10/09 13:19:30;;;;;;;11.93;10.65;;;16.30;81.70;;;;;;5088782;28;20092;-65
2021/10/09 13:21:56;;;;;;;12.60;10.02;;;16.20;81.70;;;;;;5089348;28;20153;-66
2021/10/09 13:24:22;;;;;;;12.30;10.93;;;16.20;81.60;;;;;;5089408;28;20050;-66
2021/10/09 13:26:51;;;;;;;12.55;10.07;;;16.20;81.60;;;;;;5089031;28;20705;-65
2021/10/09 13:29:16;;;;;;;14.23;10.68;;;16.20;81.60;;;;;;5089711;28;20373;-68
2021/10/09 13:31:42;;;;;;;11.95;10.35;;;16.20;81.60;;;;;;5089974;28;20097;-67
2021/10/09 13:34:08;;;;;;;12.30;10.73;;;16.20;81.60;;;;;;5090296;28;20047;-65
2021/10/09 13:36:34;;;;;;;12.27;10.20;;;16.30;81.70;;;;;;5089412;28;20556;-66
2021/10/09 13:38:59;;;;;;;12.90;10.57;;;16.20;81.60;;;;;;5090180;28;20044;-66
2021/10/09 13:41:25;;;;;;;11.32;9.60;;;16.30;81.60;;;;;;5088397;28;20040;-67
2021/10/09 13:43:51;;;;;;;12.95;9.57;;;16.30;81.60;;;;;;5088647;28;20127;-66
2021/10/09 13:46:19;;;;;;;11.93;10.00;;;16.30;81.60;;;;;;5089710;28;20412;-66
2021/10/09 13:48:45;;;;;;;11.57;10.02;;;16.20;81.50;;;;;;5090453;28;20040;-66
2021/10/09 13:51:14;;;;;;;10.70;9.60;;;16.20;81.50;;;;;;5093537;28;20048;-68
2021/10/09 13:53:43;;;;;;;11.15;9.75;;;16.20;81.50;;;;;;5093273;28;20518;-72
2021/10/09 13:56:10;;;;;;;11.98;9.75;;;16.30;81.60;;;;;;5092338;28;20458;-73
2021/10/09 13:58:36;;;;;;;11.15;9.57;;;16.20;81.50;;;;;;5092685;28;20480;-66
2021/10/09 14:01:03;;;;;;;11.27;9.95;;;16.20;81.50;;;;;;5091847;28;20075;-65
2021/10/09 14:03:31;;;;;;;11.73;9.43;;;16.20;81.50;;;;;;5093797;28;20040;-66
2021/10/09 14:06:00;;;;;;;11.63;9.95;;;16.10;81.40;;;;;;5093510;28;20048;-65
2021/10/09 14:08:26;;;;;;;10.98;9.30;;;16.30;81.50;;;;;;5093338;28;20118;-65
2021/10/09 14:10:54;;;;;;;11.40;8.95;;;16.30;81.50;;;;;;5093462;28;20044;-64
2021/10/09 14:13:21;;;;;;;11.60;9.07;;;16.20;81.40;;;;;;5092844;28;20120;-64
2021/10/09 14:15:47;;;;;;;10.10;9.00;;;16.30;81.50;;;;;;5093266;28;20113;-65
2021/10/09 14:18:16;;;;;;;11.30;9.50;;;16.30;81.50;;;;;;5093075;28;20048;-66
2021/10/09 14:20:45;;;;;;;10.98;8.80;;;16.30;81.50;;;;;;5093123;28;20059;-64
2021/10/09 14:23:12;;;;;;;10.45;9.18;;;16.20;81.40;;;;;;5085911;28;20044;-62
2021/10/09 14:25:38;;;;;;;10.45;9.07;;;16.40;81.50;;;;;;5092629;28;20036;-63
2021/10/09 14:28:04;;;;;;;10.52;9.40;;;16.30;81.50;;;;;;5092692;28;20048;-64
2021/10/09 14:30:34;;;;;;;10.18;9.07;;;16.20;81.40;;;;;;5091998;28;20078;-63
2021/10/09 14:33:00;;;;;;;9.80;8.70;;;16.30;81.50;;;;;;5092917;28;20040;-65
2021/10/09 14:35:26;;;;;;;9.82;8.55;;;16.30;81.40;;;;;;5090777;28;20396;-63
2021/10/09 14:37:52;;;;;;;9.90;8.35;;;16.30;81.40;;;;;;5092787;28;20044;-62
2021/10/09 14:40:17;;;;;;;10.18;8.80;;;16.30;81.50;;;;;;5092046;28;20036;-61
2021/10/09 14:42:45;;;;;;;10.85;8.70;;;16.30;81.40;;;;;;5092601;28;20059;-60
2021/10/09 14:45:11;;;;;;;10.15;8.73;;;16.30;81.40;;;;;;5092237;28;20040;-63
2021/10/09 14:50:25;;;;;;;10.00;8.90;;;16.30;81.40;;;;;;5092996;28;20043;-61
2021/10/09 15:19:54;;;;;;;9.20;8.00;;;16.30;81.40;;;;;;5074456;28;20041;-64
2021/10/09 15:22:20;;;;;;;10.48;7.90;;;16.30;81.40;;;;;;5092310;28;20502;-64
2021/10/09 15:24:46;;;;;;;9.52;8.35;;;16.30;81.40;;;;;;5092671;28;20032;-64
2021/10/09 15:27:11;;;;;;;9.02;8.07;;;16.30;81.50;;;;;;5092287;28;20044;-65
2021/10/09 15:29:37;;;;;;;9.77;7.72;;;16.30;81.50;;;;;;5092814;28;20431;-64
2021/10/09 15:32:03;;;;;;;9.32;8.25;;;16.30;81.40;;;;;;5091358;28;20381;-64